createdAt,value
2023-02-24T00:01:51.677Z,9.10
2023-02-24T00:04:21.537Z,8.20
2023-02-24T00:06:49.888Z,8.53
2023-02-24T00:09:20.069Z,9.10
2023-02-24T00:11:54.894Z,9.50
2023-02-24T00:14:24.665Z,10.20
2023-02-24T00:16:53.630Z,10.23
2023-02-24T00:19:23.539Z,9.37
2023-02-24T00:21:54.221Z,9.00
2023-02-24T00:24:23.249Z,8.13
2023-02-24T00:26:57.295Z,9.20
2023-02-24T00:29:25.454Z,8.13
2023-02-24T00:31:59.079Z,9.03
2023-02-24T00:34:27.382Z,8.67
2023-02-24T00:36:57.437Z,7.93
2023-02-24T00:39:30.631Z,8.33
2023-02-24T00:42:04.724Z,7.00
2023-02-24T00:44:33.838Z,7.63
2023-02-24T00:47:02.768Z,6.93
2023-02-24T00:49:30.807Z,6.63
2023-02-24T00:51:59.109Z,6.30
2023-02-24T00:54:28.347Z,6.47
2023-02-24T00:56:57.159Z,5.93
2023-02-24T00:59:26.424Z,6.33
2023-02-24T01:01:55.561Z,6.20
2023-02-24T01:04:23.811Z,6.77
2023-02-24T01:07:00.039Z,7.03
2023-02-24T01:09:29.516Z,6.33
2023-02-24T01:12:16.457Z,6.27
2023-02-24T01:14:48.688Z,6.13
2023-02-24T01:17:18.164Z,6.00
2023-02-24T01:19:49.073Z,5.97
2023-02-24T01:22:19.611Z,6.13
2023-02-24T01:24:48.228Z,6.70
2023-02-24T01:27:18.590Z,5.80
2023-02-24T01:29:48.098Z,5.60
2023-02-24T01:32:18.688Z,5.93
2023-02-24T01:34:47.118Z,4.97
2023-02-24T01:37:16.905Z,5.17
2023-02-24T01:39:45.155Z,5.07
2023-02-24T01:42:19.212Z,5.70
2023-02-24T01:45:13.129Z,5.47
2023-02-24T01:47:42.353Z,4.80
2023-02-24T01:50:14.946Z,4.70
2023-02-24T01:52:45.866Z,5.13
2023-02-24T01:55:20.029Z,5.20
2023-02-24T01:57:49.890Z,5.87
2023-02-24T02:00:37.413Z,4.77
2023-02-24T02:03:19.020Z,5.43
2023-02-24T02:05:48.489Z,5.23
2023-02-24T02:08:18.925Z,5.47
2023-02-24T02:10:47.651Z,5.80
2023-02-24T02:13:21.047Z,5.93
2023-02-24T02:16:06.251Z,6.33
2023-02-24T02:18:46.546Z,5.60
2023-02-24T02:21:55.023Z,6.00
2023-02-24T02:24:40.971Z,6.23
2023-02-24T02:27:23.840Z,6.97
2023-02-24T02:30:29.592Z,5.50
2023-02-24T02:33:30.929Z,6.67
2023-02-24T02:36:13.014Z,6.10
2023-02-24T02:38:50.615Z,6.67
2023-02-24T02:41:25.581Z,6.00
2023-02-24T02:44:03.768Z,6.63
2023-02-24T02:46:37.242Z,5.60
2023-02-24T02:49:15.094Z,5.97
2023-02-24T02:51:51.672Z,5.07
2023-02-24T02:54:27.358Z,5.43
2023-02-24T02:57:01.353Z,5.10
2023-02-24T02:59:32.194Z,5.70
2023-02-24T03:02:11.488Z,6.53
2023-02-24T03:04:43.460Z,6.00
2023-02-24T03:07:17.760Z,4.87
2023-02-24T03:09:51.659Z,5.27
2023-02-24T03:12:23.716Z,5.07
2023-02-24T03:14:59.048Z,5.20
2023-02-24T03:17:31.072Z,5.40
2023-02-24T03:20:13.078Z,5.30
2023-02-24T03:22:47.059Z,5.53
2023-02-24T03:25:16.821Z,5.60
2023-02-24T03:27:50.128Z,5.40
2023-02-24T03:30:26.733Z,4.47
2023-02-24T03:32:59.157Z,4.67
2023-02-24T03:35:32.261Z,4.93
2023-02-24T03:38:06.252Z,4.17
2023-02-24T03:40:35.441Z,4.73
2023-02-24T03:43:09.128Z,4.37
2023-02-24T03:45:38.427Z,4.30
2023-02-24T03:48:07.749Z,4.63
2023-02-24T03:50:38.058Z,5.07
2023-02-24T03:53:38.788Z,5.03
2023-02-24T03:56:20.008Z,4.43
2023-02-24T03:59:03.000Z,4.07
2023-02-24T04:01:37.571Z,4.03
2023-02-24T04:04:15.848Z,4.10
2023-02-24T04:06:57.880Z,4.47
2023-02-24T04:09:39.811Z,4.60
2023-02-24T04:12:19.925Z,4.07
2023-02-24T04:14:56.901Z,3.53
2023-02-24T04:17:31.173Z,3.77
2023-02-24T04:20:09.176Z,3.53
2023-02-24T04:22:40.927Z,3.60
2023-02-24T04:25:13.652Z,4.23
2023-02-24T04:27:44.609Z,3.27
2023-02-24T04:30:16.546Z,4.00
2023-02-24T04:32:44.908Z,3.30
2023-02-24T04:35:16.923Z,3.93
2023-02-24T04:37:50.497Z,3.83
2023-02-24T04:40:23.027Z,4.37
2023-02-24T04:42:52.161Z,3.73
2023-02-24T04:45:22.828Z,4.53
2023-02-24T04:47:53.149Z,4.70
2023-02-24T04:50:25.870Z,4.50
2023-02-24T04:52:55.600Z,3.90
2023-02-24T04:55:29.453Z,4.07
2023-02-24T04:57:58.269Z,4.40
2023-02-24T05:00:29.397Z,4.30
2023-02-24T05:02:58.097Z,4.20
2023-02-24T05:05:27.706Z,4.47
2023-02-24T05:08:02.892Z,4.10
2023-02-24T05:10:36.420Z,4.13
2023-02-24T05:13:06.660Z,4.50
2023-02-24T05:15:35.271Z,4.00
2023-02-24T05:18:07.601Z,4.00
2023-02-24T05:20:55.378Z,4.10
2023-02-24T05:23:26.303Z,3.47
2023-02-24T05:25:55.921Z,3.67
2023-02-24T05:28:24.136Z,3.70
2023-02-24T05:30:53.745Z,3.70
2023-02-24T05:33:22.450Z,3.57
2023-02-24T05:35:51.455Z,3.17
2023-02-24T05:38:20.461Z,3.80
2023-02-24T05:40:48.868Z,4.33
2023-02-24T05:43:18.338Z,3.17
2023-02-24T05:45:46.546Z,3.13
2023-02-24T05:48:15.618Z,3.50
2023-02-24T05:50:46.677Z,3.67
2023-02-24T05:53:15.100Z,3.27
2023-02-24T05:55:43.621Z,3.00
2023-02-24T05:58:11.616Z,3.23
2023-02-24T06:00:45.248Z,3.47
2023-02-24T06:03:17.524Z,3.17
2023-02-24T06:05:53.380Z,3.30
2023-02-24T06:08:24.310Z,3.20
2023-02-24T06:10:52.093Z,3.03
2023-02-24T06:13:19.921Z,3.10
2023-02-24T06:15:50.624Z,3.33
2023-02-24T06:18:18.779Z,3.80
2023-02-24T06:20:51.225Z,3.63
2023-02-24T06:23:19.443Z,3.33
2023-02-24T06:25:47.364Z,3.87
2023-02-24T06:28:15.226Z,3.47
2023-02-24T06:30:43.095Z,3.03
2023-02-24T06:33:12.441Z,3.67
2023-02-24T06:35:40.330Z,7.13
2023-02-24T06:38:08.182Z,3.20
2023-02-24T06:40:37.800Z,3.83
2023-02-24T06:43:05.733Z,3.50
2023-02-24T06:45:33.733Z,3.33
2023-02-24T06:48:03.133Z,3.67
2023-02-24T06:50:32.846Z,3.30
2023-02-24T06:53:02.618Z,3.83
2023-02-24T06:55:30.626Z,4.20
2023-02-24T06:58:04.673Z,3.57
2023-02-24T07:00:39.789Z,3.67
2023-02-24T07:03:15.701Z,3.90
2023-02-24T07:05:50.509Z,4.10
2023-02-24T07:08:23.088Z,4.73
2023-02-24T07:10:55.954Z,4.50
2023-02-24T07:13:25.364Z,4.23
2023-02-24T07:15:53.310Z,4.70
2023-02-24T07:18:21.146Z,4.17
2023-02-24T07:20:50.548Z,4.33
2023-02-24T07:23:18.428Z,4.17
2023-02-24T07:25:47.228Z,4.83
2023-02-24T07:28:17.066Z,3.50
2023-02-24T07:30:45.769Z,5.00
2023-02-24T07:33:14.316Z,4.23
2023-02-24T07:35:42.390Z,4.30
2023-02-24T07:38:17.070Z,3.50
2023-02-24T07:40:47.195Z,4.23
2023-02-24T07:43:15.985Z,3.83
2023-02-24T07:45:47.418Z,4.10
2023-02-24T07:48:15.894Z,3.50
2023-02-24T07:50:43.811Z,3.60
2023-02-24T07:53:13.041Z,4.30
2023-02-24T07:55:41.706Z,3.83
2023-02-24T07:58:10.673Z,3.93
2023-02-24T08:00:58.802Z,3.70
2023-02-24T08:03:29.937Z,4.53
2023-02-24T08:06:12.908Z,3.73
2023-02-24T08:08:57.865Z,4.37
2023-02-24T08:11:27.526Z,4.47
2023-02-24T08:13:57.875Z,4.23
2023-02-24T08:16:34.514Z,4.30
2023-02-24T08:19:03.455Z,3.93
2023-02-24T08:21:38.006Z,4.30
2023-02-24T08:24:09.284Z,4.17
2023-02-24T08:26:44.668Z,3.57
2023-02-24T08:29:13.366Z,3.63
2023-02-24T08:31:43.225Z,4.57
2023-02-24T08:34:15.986Z,3.67
2023-02-24T08:36:55.827Z,3.87
2023-02-24T08:39:25.266Z,3.80
2023-02-24T08:41:54.866Z,3.47
2023-02-24T08:44:23.003Z,3.17
2023-02-24T08:46:52.336Z,3.23
2023-02-24T08:49:24.854Z,3.30
2023-02-24T08:51:53.972Z,3.23
2023-02-24T08:54:27.244Z,3.47
2023-02-24T08:56:57.867Z,2.87
2023-02-24T08:59:37.887Z,3.47
2023-02-24T09:02:24.211Z,3.33
2023-02-24T09:04:55.167Z,3.00
2023-02-24T09:07:25.649Z,2.97
2023-02-24T09:09:56.398Z,3.47
2023-02-24T09:12:28.980Z,2.93
2023-02-24T09:15:01.050Z,3.20
2023-02-24T09:17:50.549Z,3.50
2023-02-24T09:20:38.482Z,3.23
2023-02-24T09:23:07.616Z,2.57
2023-02-24T09:25:44.907Z,3.20
2023-02-24T09:28:18.034Z,3.73
2023-02-24T09:30:58.476Z,3.83
2023-02-24T09:33:29.051Z,4.10
2023-02-24T09:36:09.757Z,4.03
2023-02-24T09:39:02.346Z,4.40
2023-02-24T09:41:45.207Z,4.07
2023-02-24T09:44:19.198Z,3.90
2023-02-24T09:46:54.852Z,4.67
2023-02-24T09:49:28.494Z,4.00
2023-02-24T09:52:08.945Z,4.00
2023-02-24T09:54:36.972Z,4.10
2023-02-24T09:57:16.704Z,4.00
2023-02-24T10:00:22.130Z,3.80
2023-02-24T10:03:00.187Z,3.80
2023-02-24T10:05:38.343Z,3.70
2023-02-24T10:08:13.696Z,4.27
2023-02-24T10:11:00.833Z,3.40
2023-02-24T10:13:33.186Z,3.40
2023-02-24T10:16:07.131Z,3.93
2023-02-24T10:18:44.018Z,3.70
2023-02-24T10:21:30.684Z,3.30
2023-02-24T10:24:14.398Z,3.83
2023-02-24T10:26:59.548Z,3.63
2023-02-24T10:29:43.323Z,3.37
2023-02-24T10:32:23.893Z,3.40
2023-02-24T10:34:53.079Z,3.60
2023-02-24T10:37:28.629Z,3.27
2023-02-24T10:39:59.351Z,3.90
2023-02-24T10:42:31.629Z,3.00
2023-02-24T10:45:17.974Z,3.30
2023-02-24T10:47:56.825Z,4.17
2023-02-24T10:50:29.776Z,3.30
2023-02-24T10:53:34.518Z,3.97
2023-02-24T10:56:31.657Z,3.23
2023-02-24T10:59:37.529Z,3.40
2023-02-24T11:02:29.440Z,4.10
2023-02-24T11:05:25.021Z,3.60
2023-02-24T11:08:15.808Z,3.10
2023-02-24T11:10:58.688Z,3.23
2023-02-24T11:13:45.731Z,4.13
2023-02-24T11:16:30.969Z,3.60
2023-02-24T11:18:59.146Z,3.53
2023-02-24T11:21:29.312Z,3.50
2023-02-24T11:24:02.818Z,3.50
2023-02-24T11:26:37.222Z,3.33
2023-02-24T11:29:19.747Z,3.50
2023-02-24T11:32:00.177Z,3.90
2023-02-24T11:34:35.210Z,3.83
2023-02-24T11:37:15.520Z,3.67
2023-02-24T11:39:54.313Z,3.87
2023-02-24T11:42:27.018Z,4.03
2023-02-24T11:45:00.948Z,3.50
2023-02-24T11:47:36.735Z,7.03
2023-02-24T11:50:19.153Z,3.13
2023-02-24T11:52:51.051Z,3.47
2023-02-24T11:55:28.315Z,3.67
2023-02-24T11:58:01.383Z,3.97
2023-02-24T12:00:34.347Z,3.67
2023-02-24T12:03:13.019Z,3.70
2023-02-24T12:05:44.794Z,4.23
2023-02-24T12:08:25.700Z,4.50
2023-02-24T12:10:59.868Z,5.40
2023-02-24T12:13:38.175Z,4.80
2023-02-24T12:16:11.693Z,4.60
2023-02-24T12:18:42.195Z,4.37
2023-02-24T12:21:16.427Z,5.27
2023-02-24T12:23:48.277Z,5.43
2023-02-24T12:26:21.058Z,5.57
2023-02-24T12:29:09.710Z,5.47
2023-02-24T12:31:53.454Z,5.63
2023-02-24T12:34:33.920Z,5.47
2023-02-24T12:37:21.124Z,6.50
2023-02-24T12:40:05.753Z,6.70
2023-02-24T12:42:42.360Z,6.50
2023-02-24T12:45:18.369Z,7.23
2023-02-24T12:48:00.311Z,7.17
2023-02-24T12:50:38.467Z,8.47
2023-02-24T12:53:17.356Z,8.53
2023-02-24T12:55:56.398Z,8.07
2023-02-24T12:58:27.863Z,8.17
2023-02-24T13:01:06.549Z,9.00
2023-02-24T13:03:55.787Z,8.60
2023-02-24T13:06:34.052Z,8.57
2023-02-24T13:09:08.198Z,9.10
2023-02-24T13:11:47.993Z,8.10
2023-02-24T13:14:25.596Z,7.90
2023-02-24T13:17:05.365Z,8.63
2023-02-24T13:19:33.382Z,8.37
2023-02-24T13:22:08.669Z,7.83
2023-02-24T13:24:37.563Z,7.43
2023-02-24T13:27:21.646Z,7.60
2023-02-24T13:29:51.159Z,7.33
2023-02-24T13:32:29.555Z,8.43
2023-02-24T13:34:58.990Z,8.37
2023-02-24T13:37:33.165Z,8.10
2023-02-24T13:40:01.521Z,7.17
2023-02-24T13:42:32.277Z,7.07
2023-02-24T13:45:17.350Z,7.43
2023-02-24T13:48:12.745Z,6.43
2023-02-24T13:50:53.107Z,6.70
2023-02-24T13:53:35.420Z,6.47
2023-02-24T13:56:21.215Z,8.00
2023-02-24T13:59:20.816Z,6.57
2023-02-24T14:01:51.494Z,6.83
2023-02-24T14:04:23.662Z,7.57
2023-02-24T14:06:54.050Z,8.30
2023-02-24T14:09:25.761Z,8.37
2023-02-24T14:12:04.524Z,8.43
2023-02-24T14:14:35.322Z,8.73
2023-02-24T14:17:03.152Z,7.90
2023-02-24T14:19:30.941Z,8.73
2023-02-24T14:22:01.780Z,8.70
2023-02-24T14:24:30.301Z,9.37
2023-02-24T14:27:00.294Z,8.83
2023-02-24T14:29:31.789Z,8.87
2023-02-24T14:32:02.322Z,9.17
2023-02-24T14:34:33.919Z,10.23
2023-02-24T14:37:04.722Z,10.97
2023-02-24T14:39:34.249Z,10.83
2023-02-24T14:42:12.915Z,11.80
2023-02-24T14:44:44.067Z,11.67
2023-02-24T14:47:16.547Z,12.30
2023-02-24T14:49:54.448Z,12.10
2023-02-24T14:52:30.732Z,11.10
2023-02-24T14:55:03.352Z,11.80
2023-02-24T14:57:35.498Z,12.57
2023-02-24T15:00:11.767Z,13.67
2023-02-24T15:02:47.597Z,13.80
2023-02-24T15:05:16.872Z,13.80
2023-02-24T15:07:46.100Z,13.73
2023-02-24T15:10:22.149Z,13.73
2023-02-24T15:12:52.957Z,13.43
2023-02-24T15:15:23.515Z,13.90
2023-02-24T15:17:55.692Z,13.53
2023-02-24T15:20:32.850Z,14.03
2023-02-24T15:23:01.099Z,14.33
2023-02-24T15:25:41.908Z,13.40
2023-02-24T15:28:24.711Z,13.93
2023-02-24T15:31:02.717Z,15.63
2023-02-24T15:33:36.497Z,16.37
2023-02-24T15:36:11.175Z,16.43
2023-02-24T15:38:40.994Z,16.10
2023-02-24T15:41:11.072Z,18.40
2023-02-24T15:43:47.284Z,18.70
2023-02-24T15:46:26.294Z,19.97
2023-02-24T15:48:57.441Z,19.77
2023-02-24T15:51:35.119Z,21.87
2023-02-24T15:54:04.770Z,22.10
2023-02-24T15:56:35.445Z,22.13
2023-02-24T15:59:03.326Z,22.53
2023-02-24T16:01:32.567Z,23.03
2023-02-24T16:04:04.572Z,22.57
2023-02-24T16:06:33.904Z,22.30
2023-02-24T16:09:05.218Z,21.97
2023-02-24T16:11:38.467Z,24.03
2023-02-24T16:14:06.491Z,25.30
2023-02-24T16:16:34.261Z,23.33
2023-02-24T16:19:03.529Z,21.23
2023-02-24T16:21:31.352Z,24.70
2023-02-24T16:23:59.221Z,24.37
2023-02-24T16:26:27.061Z,25.13
2023-02-24T16:28:56.362Z,22.23
2023-02-24T16:31:25.449Z,24.37
2023-02-24T16:33:55.602Z,23.63
2023-02-24T16:36:26.315Z,24.63
2023-02-24T16:38:54.438Z,24.33
2023-02-24T16:41:22.631Z,23.87
2023-02-24T16:43:50.770Z,18.57
2023-02-24T16:46:22.406Z,17.33
2023-02-24T16:48:53.185Z,21.83
2023-02-24T16:51:21.506Z,20.47
2023-02-24T16:53:50.692Z,20.60
2023-02-24T16:56:18.502Z,20.53
2023-02-24T16:58:46.228Z,23.20
2023-02-24T17:01:20.024Z,23.37
2023-02-24T17:03:50.787Z,24.67
2023-02-24T17:06:21.603Z,24.67
2023-02-24T17:08:51.318Z,25.53
2023-02-24T17:11:21.765Z,23.63
2023-02-24T17:13:49.573Z,19.30
2023-02-24T17:16:17.355Z,20.33
2023-02-24T17:18:45.216Z,18.33
2023-02-24T17:21:14.422Z,12.57
2023-02-24T17:23:43.500Z,11.50
2023-02-24T17:26:15.371Z,10.80
2023-02-24T17:28:43.188Z,10.70
2023-02-24T17:31:11.082Z,10.20
2023-02-24T17:33:39.063Z,11.20
2023-02-24T17:36:07.405Z,10.20
2023-02-24T17:38:35.244Z,8.50
2023-02-24T17:41:03.336Z,8.70
2023-02-24T17:43:32.477Z,9.50
2023-02-24T17:46:06.497Z,9.00
2023-02-24T17:48:35.057Z,7.57
2023-02-24T17:51:02.856Z,7.87
2023-02-24T17:53:31.203Z,6.80
2023-02-24T17:56:03.424Z,6.80
2023-02-24T17:58:33.324Z,6.90
2023-02-24T18:01:02.069Z,7.37
2023-02-24T18:03:30.498Z,8.00
2023-02-24T18:06:03.071Z,6.90
2023-02-24T18:08:31.400Z,7.63
2023-02-24T18:11:00.834Z,5.57
2023-02-24T18:13:29.906Z,4.87
2023-02-24T18:15:59.733Z,4.60
2023-02-24T18:18:30.224Z,4.50
2023-02-24T18:21:02.640Z,4.33
2023-02-24T18:23:30.883Z,5.23
2023-02-24T18:26:02.274Z,4.60
2023-02-24T18:28:30.230Z,4.53
2023-02-24T18:31:00.573Z,4.70
2023-02-24T18:33:29.278Z,4.03
2023-02-24T18:36:00.681Z,4.53
2023-02-24T18:38:29.243Z,8.53
2023-02-24T18:41:01.669Z,21.07
2023-02-24T18:43:30.276Z,4.40
2023-02-24T18:46:02.090Z,2.93
2023-02-24T18:48:31.742Z,2.37
2023-02-24T18:51:00.561Z,2.67
2023-02-24T18:53:31.322Z,3.00
2023-02-24T18:56:03.517Z,1.77
2023-02-24T18:58:32.129Z,1.93
2023-02-24T19:01:01.313Z,2.03
2023-02-24T19:03:29.085Z,1.70
2023-02-24T19:05:56.808Z,1.97
2023-02-24T19:08:24.702Z,2.17
2023-02-24T19:10:52.400Z,2.97
2023-02-24T19:13:20.540Z,4.13
2023-02-24T19:15:48.412Z,3.73
2023-02-24T19:18:17.913Z,3.80
2023-02-24T19:20:45.673Z,3.83
2023-02-24T19:23:13.413Z,3.90
2023-02-24T19:25:41.180Z,3.77
2023-02-24T19:28:08.920Z,3.83
2023-02-24T19:30:39.080Z,4.13
2023-02-24T19:33:07.048Z,3.63
2023-02-24T19:35:40.288Z,4.07
2023-02-24T19:38:08.060Z,3.17
2023-02-24T19:40:36.452Z,2.87
2023-02-24T19:43:04.411Z,3.10
2023-02-24T19:45:32.289Z,3.20
2023-02-24T19:48:00.146Z,3.00
2023-02-24T19:50:28.387Z,2.77
2023-02-24T19:52:57.659Z,2.83
2023-02-24T19:55:25.674Z,3.33
2023-02-24T19:57:54.795Z,2.97
2023-02-24T20:00:23.477Z,2.73
2023-02-24T20:02:53.191Z,2.63
2023-02-24T20:05:21.315Z,3.30
2023-02-24T20:07:49.038Z,3.20
2023-02-24T20:10:18.736Z,3.57
2023-02-24T20:12:46.542Z,2.67
2023-02-24T20:15:15.373Z,3.43
2023-02-24T20:17:43.146Z,3.37
2023-02-24T20:20:13.024Z,3.23
2023-02-24T20:22:41.161Z,3.30
2023-02-24T20:25:09.529Z,2.87
2023-02-24T20:27:38.651Z,3.57
2023-02-24T20:30:07.254Z,2.80
2023-02-24T20:32:35.380Z,3.00
2023-02-24T20:35:03.329Z,3.53
2023-02-24T20:37:31.211Z,3.50
2023-02-24T20:39:59.045Z,3.20
2023-02-24T20:42:26.801Z,3.63
2023-02-24T20:44:55.991Z,3.63
2023-02-24T20:47:23.806Z,4.27
2023-02-24T20:49:51.512Z,3.63
2023-02-24T20:52:19.256Z,3.80
2023-02-24T20:54:46.965Z,3.63
2023-02-24T20:57:14.845Z,3.63
2023-02-24T20:59:49.263Z,3.37
2023-02-24T21:02:23.835Z,3.43
2023-02-24T21:04:51.660Z,3.80
2023-02-24T21:07:19.410Z,3.40
2023-02-24T21:09:47.270Z,4.10
2023-02-24T21:12:15.044Z,3.77
2023-02-24T21:14:43.720Z,4.30
2023-02-24T21:17:12.406Z,4.47
2023-02-24T21:19:43.124Z,3.93
2023-02-24T21:22:10.841Z,4.40
2023-02-24T21:24:38.601Z,4.17
2023-02-24T21:27:06.423Z,4.67
2023-02-24T21:29:34.154Z,4.07
2023-02-24T21:32:03.225Z,3.70
2023-02-24T21:34:31.610Z,4.13
2023-02-24T21:37:01.602Z,5.20
2023-02-24T21:39:29.433Z,3.90
2023-02-24T21:41:57.261Z,4.17
2023-02-24T21:44:25.630Z,4.40
2023-02-24T21:46:53.449Z,4.70
2023-02-24T21:49:23.449Z,3.87
2023-02-24T21:51:51.627Z,5.33
2023-02-24T21:54:20.753Z,4.40
2023-02-24T21:56:48.613Z,4.30
2023-02-24T21:59:16.380Z,4.50
2023-02-24T22:01:45.827Z,4.27
2023-02-24T22:04:15.968Z,4.80
2023-02-24T22:06:44.575Z,6.43
2023-02-24T22:09:14.217Z,3.90
2023-02-24T22:11:43.352Z,4.83
2023-02-24T22:14:13.573Z,4.17
2023-02-24T22:16:42.937Z,3.77
2023-02-24T22:19:11.619Z,4.33
2023-02-24T22:21:42.262Z,4.60
2023-02-24T22:24:13.175Z,4.70
2023-02-24T22:26:41.289Z,4.57
2023-02-24T22:29:10.970Z,4.87
2023-02-24T22:31:39.516Z,5.00
2023-02-24T22:34:08.744Z,4.33
2023-02-24T22:36:37.741Z,4.60
2023-02-24T22:39:07.162Z,4.10
2023-02-24T22:41:35.880Z,4.20
2023-02-24T22:44:05.674Z,4.40
2023-02-24T22:46:37.422Z,3.83
2023-02-24T22:49:05.570Z,4.20
2023-02-24T22:51:33.509Z,3.57
2023-02-24T22:54:01.254Z,4.40
2023-02-24T22:56:29.922Z,3.80
2023-02-24T22:58:58.337Z,4.13
2023-02-24T23:01:28.704Z,3.90
2023-02-24T23:04:00.767Z,3.70
2023-02-24T23:06:28.728Z,5.03
2023-02-24T23:08:59.007Z,4.53
2023-02-24T23:11:29.431Z,4.83
2023-02-24T23:13:59.588Z,3.83
2023-02-24T23:16:31.525Z,3.87
2023-02-24T23:19:04.188Z,4.07
2023-02-24T23:21:34.954Z,4.00
2023-02-24T23:24:04.014Z,4.03
2023-02-24T23:26:33.188Z,4.63
2023-02-24T23:29:01.324Z,3.93
2023-02-24T23:31:29.378Z,3.63
2023-02-24T23:33:57.907Z,3.43
2023-02-24T23:36:27.329Z,4.00
2023-02-24T23:38:55.130Z,3.67
2023-02-24T23:41:22.883Z,3.90
2023-02-24T23:43:50.608Z,4.33
2023-02-24T23:46:18.572Z,3.33
2023-02-24T23:48:46.816Z,3.67
2023-02-24T23:51:16.296Z,3.80
2023-02-24T23:53:47.051Z,4.40
2023-02-24T23:56:16.915Z,3.37
2023-02-24T23:58:45.529Z,4.10
